Time;durP1;ratioP1;P1;durP2;ratioP2;P2;SDS_P1;SDS_P2;PMS_P1;PMS_P2;Temp;Humidity;BMP_temperature;BMP_pressure;BME280_temperature;BME280_humidity;BME280_pressure;Samples;Min_cycle;Max_cycle;Signal;HPM_P1;HPM_P2
2022/03/03 00:01:42;;;;;;;39.33;23.73;;;3.10;99.90;;;;;;5071040;28;20519;-67
2022/03/03 00:04:10;;;;;;;44.27;27.10;;;3.00;99.90;;;;;;5071228;28;20473;-67
2022/03/03 00:06:39;;;;;;;44.00;25.90;;;3.00;99.90;;;;;;5071011;28;20527;-67
2022/03/03 00:09:07;;;;;;;39.17;24.43;;;3.00;99.90;;;;;;5070657;28;20494;-67
2022/03/03 00:11:35;;;;;;;51.67;31.87;;;3.20;99.90;;;;;;5061271;28;20472;-67
2022/03/03 00:14:03;;;;;;;52.77;31.73;;;3.10;99.90;;;;;;5050817;28;20474;-67
2022/03/03 00:16:33;;;;;;;52.37;32.00;;;2.90;99.90;;;;;;5050718;28;20522;-67
2022/03/03 00:19:01;;;;;;;56.10;30.27;;;2.70;99.90;;;;;;5050794;28;20834;-67
2022/03/03 00:21:29;;;;;;;51.37;30.37;;;2.60;99.90;;;;;;5053477;28;20552;-67
2022/03/03 00:23:58;;;;;;;40.67;24.57;;;2.60;99.90;;;;;;5050543;28;20468;-67
2022/03/03 00:26:26;;;;;;;49.57;29.67;;;2.80;99.90;;;;;;5051029;28;20467;-66
2022/03/03 00:28:54;;;;;;;54.17;32.70;;;2.70;99.90;;;;;;5049472;28;21036;-67
2022/03/03 00:31:23;;;;;;;50.90;31.10;;;2.60;99.90;;;;;;5030996;28;20986;-66
2022/03/03 00:33:52;;;;;;;49.57;30.07;;;2.50;99.90;;;;;;5050817;28;20466;-67
2022/03/03 00:36:20;;;;;;;52.17;30.33;;;2.50;99.90;;;;;;5050826;28;20465;-67
2022/03/03 00:38:49;;;;;;;50.57;30.93;;;2.70;99.90;;;;;;5044721;28;20538;-67
2022/03/03 00:41:18;;;;;;;47.23;29.60;;;2.60;99.90;;;;;;5033438;28;20962;-67
2022/03/03 00:43:46;;;;;;;54.20;30.90;;;2.70;99.90;;;;;;5030863;28;20467;-67
2022/03/03 00:46:14;;;;;;;53.43;31.53;;;2.70;99.90;;;;;;5030786;28;20482;-67
2022/03/03 00:48:42;;;;;;;52.20;31.27;;;2.50;99.90;;;;;;5048956;28;20472;-67
2022/03/03 00:51:12;;;;;;;46.60;30.60;;;2.40;99.90;;;;;;5053754;28;20531;-67
2022/03/03 00:53:40;;;;;;;50.40;31.37;;;2.30;99.90;;;;;;5054518;28;20484;-67
2022/03/03 00:56:08;;;;;;;49.63;30.23;;;2.20;99.90;;;;;;5054374;28;20531;-67
2022/03/03 00:58:36;;;;;;;48.77;30.03;;;2.20;99.90;;;;;;5054306;28;20496;-67
2022/03/03 01:01:04;;;;;;;50.43;31.43;;;2.20;99.90;;;;;;5054371;28;20535;-67
2022/03/03 01:03:32;;;;;;;55.40;31.67;;;2.10;99.90;;;;;;5054172;28;20830;-67
2022/03/03 01:06:01;;;;;;;48.63;28.40;;;2.10;99.90;;;;;;5054453;28;20557;-67
2022/03/03 01:08:30;;;;;;;52.10;31.33;;;2.20;99.90;;;;;;5048249;28;20469;-67
2022/03/03 01:10:59;;;;;;;49.03;28.93;;;2.20;99.90;;;;;;5047162;28;20474;-67
2022/03/03 01:13:27;;;;;;;49.03;29.43;;;2.40;99.90;;;;;;5051034;28;20463;-67
2022/03/03 01:15:55;;;;;;;46.67;28.73;;;2.50;99.90;;;;;;5054574;28;20476;-67
2022/03/03 01:18:24;;;;;;;44.53;27.47;;;2.40;99.90;;;;;;5038233;28;20553;-67
2022/03/03 01:20:54;;;;;;;46.50;29.60;;;2.50;99.90;;;;;;5034271;28;20481;-67
2022/03/03 01:23:22;;;;;;;52.87;32.10;;;2.50;99.90;;;;;;5049607;28;20481;-67
2022/03/03 01:25:52;;;;;;;50.17;30.40;;;2.60;99.90;;;;;;5054016;28;20475;-67
2022/03/03 01:28:20;;;;;;;55.73;32.27;;;2.30;99.90;;;;;;5053692;28;20492;-67
2022/03/03 01:30:48;;;;;;;52.57;30.63;;;2.10;99.90;;;;;;5053990;28;20467;-67
2022/03/03 01:33:17;;;;;;;51.63;29.67;;;2.00;99.90;;;;;;5053598;28;20461;-67
2022/03/03 01:35:45;;;;;;;49.30;29.70;;;2.20;99.90;;;;;;5053835;28;20473;-67
2022/03/03 01:38:13;;;;;;;57.63;32.97;;;2.30;99.90;;;;;;5053377;28;20481;-67
2022/03/03 01:40:41;;;;;;;57.53;33.97;;;2.20;99.90;;;;;;5041394;28;20498;-67
2022/03/03 01:43:11;;;;;;;66.17;36.87;;;2.40;99.90;;;;;;5047623;28;20502;-67
2022/03/03 01:45:40;;;;;;;60.33;33.77;;;2.30;99.90;;;;;;5053563;28;20500;-67
2022/03/03 01:48:08;;;;;;;67.47;36.60;;;2.20;99.90;;;;;;5053251;28;21080;-67
2022/03/03 01:50:37;;;;;;;63.17;36.00;;;2.20;99.90;;;;;;5053642;28;20981;-67
2022/03/03 01:53:05;;;;;;;63.07;35.13;;;2.10;99.90;;;;;;5039950;28;20620;-67
2022/03/03 01:55:34;;;;;;;59.83;32.90;;;2.00;99.90;;;;;;5033514;28;20991;-66
2022/03/03 01:58:04;;;;;;;61.93;34.80;;;1.90;99.90;;;;;;5046531;28;20841;-67
2022/03/03 02:00:34;;;;;;;54.97;34.00;;;2.00;99.90;;;;;;5052934;28;20470;-67
2022/03/03 02:03:02;;;;;;;51.77;30.37;;;2.10;99.90;;;;;;5039872;28;20580;-67
2022/03/03 02:05:31;;;;;;;58.63;34.27;;;2.10;99.90;;;;;;5033219;28;20478;-67
2022/03/03 02:07:59;;;;;;;56.57;33.23;;;2.20;99.90;;;;;;5045671;28;20477;-65
2022/03/03 02:10:27;;;;;;;58.70;33.33;;;2.10;99.90;;;;;;5044841;28;20469;-66
2022/03/03 02:12:56;;;;;;;60.57;35.20;;;2.20;99.90;;;;;;5041367;28;20464;-67
2022/03/03 02:15:24;;;;;;;51.40;31.33;;;2.30;99.90;;;;;;5033470;28;20997;-66
2022/03/03 02:17:53;;;;;;;58.00;34.23;;;2.30;99.90;;;;;;5033116;28;21026;-67
2022/03/03 02:20:24;;;;;;;58.57;32.27;;;2.10;99.90;;;;;;5033113;28;20468;-67
2022/03/03 02:22:54;;;;;;;54.77;33.13;;;2.20;99.90;;;;;;5035839;28;20532;-66
2022/03/03 02:25:23;;;;;;;60.57;32.63;;;2.20;99.90;;;;;;5033184;28;20482;-67
2022/03/03 02:27:51;;;;;;;59.53;32.00;;;2.10;99.90;;;;;;5032943;28;20482;-67
2022/03/03 02:30:20;;;;;;;52.97;33.20;;;1.90;99.90;;;;;;5032767;28;20470;-67
2022/03/03 02:32:48;;;;;;;53.07;31.10;;;1.90;99.90;;;;;;5043922;28;20861;-67
2022/03/03 02:35:17;;;;;;;53.20;31.47;;;1.90;99.90;;;;;;5052731;28;20900;-67
2022/03/03 02:37:47;;;;;;;49.57;30.83;;;1.90;99.90;;;;;;5052067;28;20559;-66
2022/03/03 02:40:20;;;;;;;43.07;27.67;;;2.00;99.90;;;;;;5044107;28;20467;-67
2022/03/03 02:42:49;;;;;;;51.37;31.03;;;2.10;99.90;;;;;;5041382;28;20468;-67
2022/03/03 02:45:17;;;;;;;59.90;33.53;;;2.00;99.90;;;;;;5032582;28;20825;-66
2022/03/03 02:47:47;;;;;;;42.73;26.43;;;1.90;99.90;;;;;;5032447;28;20831;-67
2022/03/03 02:50:17;;;;;;;54.00;32.43;;;2.10;99.90;;;;;;5032502;28;20489;-67
2022/03/03 02:52:46;;;;;;;54.77;32.77;;;2.00;99.90;;;;;;5032581;28;20990;-67
2022/03/03 02:55:14;;;;;;;50.53;32.70;;;1.90;99.90;;;;;;5032354;28;20481;-67
2022/03/03 02:57:55;;;;;;;54.23;31.57;;;1.80;99.90;;;;;;5032251;28;20480;-67
2022/03/03 03:00:24;;;;;;;54.57;30.67;;;1.70;99.90;;;;;;5032478;28;21034;-67
2022/03/03 03:02:53;;;;;;;42.73;26.07;;;1.60;99.90;;;;;;5032070;28;20563;-67
2022/03/03 03:05:22;;;;;;;43.00;26.37;;;1.70;99.90;;;;;;5032073;28;20829;-67
2022/03/03 03:07:51;;;;;;;46.93;30.67;;;1.90;99.90;;;;;;5043045;28;20490;-67
2022/03/03 03:10:19;;;;;;;49.17;27.73;;;1.80;99.90;;;;;;5051782;28;20887;-67
2022/03/03 03:12:47;;;;;;;44.63;29.33;;;1.50;99.90;;;;;;5050991;28;20487;-67
2022/03/03 03:15:16;;;;;;;48.17;28.90;;;1.50;99.90;;;;;;5052081;28;20855;-67
2022/03/03 03:17:44;;;;;;;43.93;29.77;;;1.50;99.90;;;;;;5044525;28;20472;-67
2022/03/03 03:20:12;;;;;;;40.33;26.67;;;1.40;99.90;;;;;;5051863;28;20463;-67
2022/03/03 03:22:41;;;;;;;42.17;28.03;;;1.40;99.90;;;;;;5048281;28;21020;-67
2022/03/03 03:25:13;;;;;;;36.83;24.63;;;1.40;99.90;;;;;;5051644;28;20470;-67
2022/03/03 03:27:44;;;;;;;39.73;26.13;;;1.50;99.90;;;;;;5043930;28;20505;-67
2022/03/03 03:30:13;;;;;;;44.30;28.13;;;1.40;99.90;;;;;;5043412;28;20472;-67
2022/03/03 03:32:41;;;;;;;38.70;25.60;;;1.70;99.90;;;;;;5031794;28;20566;-67
2022/03/03 03:35:11;;;;;;;46.50;29.40;;;1.60;99.90;;;;;;5031561;28;20899;-66
2022/03/03 03:37:40;;;;;;;47.17;26.57;;;1.60;99.90;;;;;;5041364;28;20474;-67
2022/03/03 03:40:10;;;;;;;35.03;22.63;;;1.50;99.90;;;;;;5051467;28;20468;-67
2022/03/03 03:42:38;;;;;;;49.90;28.20;;;1.70;99.90;;;;;;5041284;28;20530;-67
2022/03/03 03:45:08;;;;;;;42.03;28.80;;;1.60;99.90;;;;;;5031382;28;21177;-67
2022/03/03 03:47:36;;;;;;;42.83;28.10;;;1.50;99.90;;;;;;5040382;28;20485;-66
2022/03/03 03:50:08;;;;;;;35.63;23.17;;;1.30;99.90;;;;;;5044032;28;20840;-66
2022/03/03 03:52:36;;;;;;;50.07;29.27;;;1.60;99.90;;;;;;5041455;28;20512;-67
2022/03/03 03:55:05;;;;;;;47.97;30.53;;;1.60;99.90;;;;;;5031241;28;20553;-66
2022/03/03 03:57:36;;;;;;;44.33;28.57;;;1.60;99.90;;;;;;5032141;28;20469;-65
2022/03/03 04:00:06;;;;;;;44.70;26.90;;;1.60;99.90;;;;;;5051029;28;20493;-67
2022/03/03 04:02:39;;;;;;;37.83;24.73;;;1.70;99.90;;;;;;5041042;28;20474;-66
2022/03/03 04:05:09;;;;;;;47.27;28.93;;;1.60;99.90;;;;;;5031173;28;20480;-67
2022/03/03 04:07:37;;;;;;;41.17;25.03;;;1.50;99.90;;;;;;5045727;28;20470;-66
2022/03/03 04:10:06;;;;;;;43.83;27.00;;;1.50;99.90;;;;;;5043383;28;20466;-67
2022/03/03 04:12:36;;;;;;;39.60;23.00;;;1.60;99.90;;;;;;5041190;28;20467;-67
2022/03/03 04:15:04;;;;;;;47.43;27.97;;;1.70;99.90;;;;;;5031104;28;20480;-66
2022/03/03 04:17:33;;;;;;;44.67;27.57;;;1.50;99.90;;;;;;5035986;28;20475;-66
2022/03/03 04:20:06;;;;;;;44.27;26.57;;;1.50;99.90;;;;;;5030967;28;20512;-67
2022/03/03 04:22:35;;;;;;;42.57;25.70;;;1.40;99.90;;;;;;5039625;28;20468;-67
2022/03/03 04:25:04;;;;;;;43.27;25.40;;;1.40;99.90;;;;;;5050647;28;20477;-66
2022/03/03 04:27:34;;;;;;;40.53;25.20;;;1.20;99.90;;;;;;5041223;28;20477;-67
2022/03/03 04:30:03;;;;;;;40.20;25.47;;;1.20;99.90;;;;;;5011065;28;20483;-67
2022/03/03 04:32:31;;;;;;;41.93;25.73;;;1.10;99.90;;;;;;5025049;28;20991;-66
2022/03/03 04:34:59;;;;;;;46.90;27.03;;;1.10;99.90;;;;;;5036919;28;20472;-67
2022/03/03 04:37:29;;;;;;;46.13;26.00;;;1.20;99.90;;;;;;5030456;28;20467;-65
2022/03/03 04:39:57;;;;;;;42.87;25.00;;;1.10;99.90;;;;;;5030974;28;20798;-64
2022/03/03 04:42:25;;;;;;;40.47;25.53;;;0.90;99.90;;;;;;5030992;28;20469;-67
2022/03/03 04:44:54;;;;;;;43.50;25.10;;;1.10;99.90;;;;;;5030773;28;20550;-67
2022/03/03 04:47:22;;;;;;;41.00;22.97;;;1.10;99.90;;;;;;5034638;28;20547;-67
2022/03/03 04:49:50;;;;;;;44.50;27.37;;;1.30;99.90;;;;;;5030897;28;20454;-67
2022/03/03 04:52:18;;;;;;;46.27;26.73;;;1.20;99.90;;;;;;5033580;28;20556;-66
2022/03/03 04:54:47;;;;;;;41.13;24.33;;;1.20;99.90;;;;;;5050842;28;20578;-67
2022/03/03 04:57:15;;;;;;;41.07;23.97;;;1.20;99.90;;;;;;5049980;28;20836;-67
2022/03/03 04:59:43;;;;;;;46.60;27.77;;;1.30;99.90;;;;;;5031680;28;20992;-67
2022/03/03 05:02:12;;;;;;;40.93;25.40;;;1.30;99.90;;;;;;5030355;28;20474;-66
2022/03/03 05:04:41;;;;;;;40.03;25.27;;;1.30;99.90;;;;;;5044957;28;20562;-66
2022/03/03 05:07:09;;;;;;;36.60;23.17;;;1.20;99.90;;;;;;5050074;28;20463;-67
2022/03/03 05:09:37;;;;;;;40.20;25.13;;;1.40;99.90;;;;;;5050548;28;20533;-67
2022/03/03 05:12:06;;;;;;;38.73;24.93;;;1.20;99.90;;;;;;5049117;28;20473;-67
2022/03/03 05:14:34;;;;;;;38.80;24.27;;;1.00;99.90;;;;;;5030503;28;20469;-66
2022/03/03 05:17:03;;;;;;;42.80;26.37;;;1.00;99.90;;;;;;5030101;28;20482;-66
2022/03/03 05:19:32;;;;;;;38.43;23.23;;;1.00;99.90;;;;;;5022099;28;20464;-67
2022/03/03 05:22:00;;;;;;;35.03;22.33;;;1.10;99.90;;;;;;5030119;28;20806;-67
2022/03/03 05:24:28;;;;;;;35.10;22.40;;;0.90;99.90;;;;;;5030324;28;20536;-66
2022/03/03 05:26:56;;;;;;;37.93;23.43;;;1.00;99.90;;;;;;5030509;28;20467;-67
2022/03/03 05:29:25;;;;;;;35.63;23.17;;;1.00;99.90;;;;;;5044997;28;20538;-67
2022/03/03 05:31:54;;;;;;;33.80;21.27;;;1.00;99.90;;;;;;5050119;28;20546;-67
2022/03/03 05:34:22;;;;;;;37.90;23.33;;;1.00;99.90;;;;;;5050277;28;20480;-66
2022/03/03 05:36:51;;;;;;;35.93;22.57;;;0.90;99.90;;;;;;5052252;28;20985;-67
2022/03/03 05:39:20;;;;;;;38.70;23.07;;;0.90;99.90;;;;;;5045264;28;20501;-67
2022/03/03 05:41:49;;;;;;;34.80;20.47;;;1.00;99.90;;;;;;5050744;28;20473;-67
2022/03/03 05:44:17;;;;;;;33.20;19.87;;;1.00;99.90;;;;;;5033753;28;20505;-67
2022/03/03 05:46:47;;;;;;;38.97;23.67;;;0.90;99.90;;;;;;5041241;28;20477;-67
2022/03/03 05:49:18;;;;;;;37.90;23.43;;;1.10;99.90;;;;;;5049752;28;20482;-67
2022/03/03 05:51:47;;;;;;;37.70;23.13;;;1.10;99.90;;;;;;5046418;28;20486;-67
2022/03/03 05:54:16;;;;;;;40.33;24.50;;;1.10;99.90;;;;;;5053375;28;20521;-67
2022/03/03 05:56:48;;;;;;;35.77;21.20;;;1.00;99.90;;;;;;5053068;28;20468;-67
2022/03/03 05:59:17;;;;;;;38.33;22.23;;;1.10;99.90;;;;;;5044922;28;20497;-67
2022/03/03 06:01:45;;;;;;;43.93;26.27;;;1.30;99.90;;;;;;5050840;28;20462;-67
2022/03/03 06:04:16;;;;;;;36.10;21.40;;;1.10;99.90;;;;;;5038281;28;20474;-67
2022/03/03 06:06:53;;;;;;;39.50;21.37;;;1.50;99.90;;;;;;5048001;28;20483;-67
2022/03/03 06:09:26;;;;;;;45.93;23.17;;;1.60;99.90;;;;;;5033527;28;20531;-67
2022/03/03 06:12:03;;;;;;;46.63;23.90;;;1.80;99.90;;;;;;5033266;28;20531;-67
2022/03/03 06:14:38;;;;;;;56.83;28.73;;;1.50;99.90;;;;;;5032882;28;20516;-67
2022/03/03 06:17:07;;;;;;;55.87;26.77;;;1.50;99.90;;;;;;5040739;28;20485;-67
2022/03/03 06:19:40;;;;;;;46.47;23.63;;;1.40;99.90;;;;;;5044478;28;20476;-66
2022/03/03 06:22:10;;;;;;;50.67;24.20;;;1.40;99.90;;;;;;5044010;28;21033;-67
2022/03/03 06:24:40;;;;;;;55.53;27.70;;;1.70;99.90;;;;;;5032766;28;20474;-67
2022/03/03 06:27:09;;;;;;;49.73;26.13;;;1.40;99.90;;;;;;5035136;28;22710;-67
2022/03/03 06:29:38;;;;;;;46.53;24.00;;;1.20;99.90;;;;;;5041773;28;21019;-66
2022/03/03 06:32:07;;;;;;;50.43;24.50;;;1.10;99.90;;;;;;5052793;28;20475;-67
2022/03/03 06:34:36;;;;;;;41.03;23.63;;;1.10;99.90;;;;;;5052786;28;20475;-67
2022/03/03 06:37:05;;;;;;;38.53;21.53;;;1.00;99.90;;;;;;5047198;28;20602;-67
2022/03/03 06:39:33;;;;;;;36.07;20.80;;;1.00;99.90;;;;;;5043929;28;20530;-67
2022/03/03 06:42:02;;;;;;;38.40;21.73;;;0.90;99.90;;;;;;5038877;28;20466;-67
2022/03/03 06:44:31;;;;;;;37.23;22.23;;;1.00;99.90;;;;;;5032650;28;20471;-67
2022/03/03 06:46:59;;;;;;;38.63;22.40;;;0.90;99.90;;;;;;5034396;28;20478;-66
2022/03/03 06:49:27;;;;;;;37.37;21.97;;;1.00;99.90;;;;;;5033137;28;20554;-65
2022/03/03 06:51:57;;;;;;;38.77;21.83;;;1.00;99.90;;;;;;5034907;28;21046;-67
2022/03/03 06:54:25;;;;;;;37.00;22.27;;;1.00;99.90;;;;;;5052574;28;20494;-67
2022/03/03 06:56:55;;;;;;;35.43;20.83;;;1.00;99.90;;;;;;5052177;28;20464;-68
2022/03/03 06:59:26;;;;;;;40.63;21.47;;;0.90;99.90;;;;;;5052374;28;20467;-68
2022/03/03 07:01:55;;;;;;;40.57;21.10;;;0.90;99.90;;;;;;5049969;28;20490;-67
2022/03/03 07:04:24;;;;;;;32.37;19.77;;;0.90;99.90;;;;;;5034263;28;20503;-68
2022/03/03 07:06:52;;;;;;;31.43;19.40;;;0.80;99.90;;;;;;5033419;28;20516;-67
2022/03/03 07:09:21;;;;;;;33.77;19.70;;;0.80;99.90;;;;;;5032114;28;20470;-67
2022/03/03 07:11:50;;;;;;;35.97;20.83;;;0.90;99.90;;;;;;5035306;28;20882;-67
2022/03/03 07:14:19;;;;;;;32.47;19.40;;;0.80;99.90;;;;;;5051125;28;20980;-67
2022/03/03 07:17:00;;;;;;;32.57;18.40;;;0.80;99.90;;;;;;5041674;28;21052;-67
2022/03/03 07:19:56;;;;;;;30.53;18.17;;;0.70;99.90;;;;;;5047983;28;20473;-65
2022/03/03 07:22:33;;;;;;;34.50;17.87;;;0.60;99.90;;;;;;5038994;28;20469;-67
2022/03/03 07:25:04;;;;;;;36.80;19.60;;;0.50;99.90;;;;;;5031388;28;20467;-68
2022/03/03 07:27:34;;;;;;;36.23;19.53;;;0.50;99.90;;;;;;5049080;28;20488;-66
2022/03/03 07:30:06;;;;;;;35.63;20.57;;;0.50;99.90;;;;;;5050405;28;20470;-67
2022/03/03 07:32:38;;;;;;;39.37;20.50;;;0.50;99.90;;;;;;5046610;28;20472;-68
2022/03/03 07:35:09;;;;;;;39.67;20.83;;;0.50;99.90;;;;;;5044888;28;20525;-67
2022/03/03 07:37:41;;;;;;;35.83;21.07;;;0.60;99.90;;;;;;5051288;28;20532;-67
2022/03/03 07:40:11;;;;;;;36.77;20.43;;;0.60;99.90;;;;;;5051627;28;20850;-67
2022/03/03 07:42:40;;;;;;;35.53;19.80;;;0.70;99.90;;;;;;5041663;28;20564;-68
2022/03/03 07:45:09;;;;;;;33.80;18.80;;;0.80;99.90;;;;;;5031433;28;20837;-67
2022/03/03 07:47:39;;;;;;;39.27;20.33;;;0.80;99.90;;;;;;5031068;28;20475;-67
2022/03/03 07:50:09;;;;;;;40.23;22.10;;;0.80;99.90;;;;;;5031341;28;20472;-67
2022/03/03 07:52:37;;;;;;;32.93;18.67;;;0.80;99.90;;;;;;5042774;28;20481;-68
2022/03/03 07:55:06;;;;;;;46.93;19.57;;;0.90;99.90;;;;;;5035850;28;20535;-67
2022/03/03 07:57:39;;;;;;;42.63;22.23;;;0.80;99.90;;;;;;5040992;28;20477;-68
2022/03/03 08:00:09;;;;;;;35.00;19.53;;;0.80;99.90;;;;;;5050667;28;20467;-67
2022/03/03 08:02:41;;;;;;;41.20;20.27;;;0.90;99.90;;;;;;5051173;28;20480;-67
2022/03/03 08:05:10;;;;;;;34.43;19.53;;;0.90;99.90;;;;;;5050925;28;20506;-67
2022/03/03 08:07:42;;;;;;;38.73;19.27;;;0.90;99.90;;;;;;5042862;28;20512;-68
2022/03/03 08:10:11;;;;;;;35.23;19.13;;;0.80;99.90;;;;;;5050469;28;21073;-67
2022/03/03 08:12:41;;;;;;;33.57;19.83;;;0.80;99.90;;;;;;5038518;28;20480;-67
2022/03/03 08:15:11;;;;;;;39.13;19.27;;;0.90;99.90;;;;;;5038063;28;21049;-68
2022/03/03 08:17:44;;;;;;;39.43;19.57;;;1.10;99.90;;;;;;5046036;28;20532;-68
2022/03/03 08:20:13;;;;;;;37.17;20.27;;;1.10;99.90;;;;;;5069267;28;20463;-69
2022/03/03 08:22:41;;;;;;;33.07;18.20;;;1.30;99.90;;;;;;5058177;28;20480;-69
2022/03/03 08:25:11;;;;;;;36.53;20.73;;;1.30;99.90;;;;;;5048251;28;20558;-69
2022/03/03 08:27:40;;;;;;;34.37;19.20;;;1.50;99.90;;;;;;5046428;28;20478;-63
2022/03/03 08:30:11;;;;;;;36.73;19.53;;;1.50;99.90;;;;;;5038120;28;20471;-68
2022/03/03 08:32:42;;;;;;;37.83;19.40;;;1.40;99.90;;;;;;5041279;28;20566;-68
2022/03/03 08:35:14;;;;;;;31.13;17.10;;;1.40;99.90;;;;;;5050512;28;20533;-69
2022/03/03 08:37:44;;;;;;;35.30;19.70;;;1.50;99.90;;;;;;5050185;28;20472;-68
2022/03/03 08:40:15;;;;;;;36.80;20.13;;;1.50;99.90;;;;;;5050786;28;20486;-69
2022/03/03 08:42:48;;;;;;;40.17;20.57;;;1.50;99.90;;;;;;5050688;28;20476;-69
2022/03/03 08:45:19;;;;;;;38.07;19.13;;;1.50;99.90;;;;;;5050457;28;20497;-69
2022/03/03 08:47:56;;;;;;;35.37;19.93;;;1.50;99.90;;;;;;5050007;28;20475;-68
2022/03/03 08:50:32;;;;;;;37.03;20.23;;;1.50;99.90;;;;;;5050351;28;20521;-68
2022/03/03 08:53:03;;;;;;;37.97;19.97;;;1.40;99.90;;;;;;5049853;28;20474;-68
2022/03/03 08:55:32;;;;;;;34.67;19.23;;;1.50;99.90;;;;;;5038414;28;20472;-69
2022/03/03 08:58:00;;;;;;;34.10;19.57;;;1.60;99.90;;;;;;5050312;28;20474;-69
2022/03/03 09:00:30;;;;;;;37.30;19.33;;;1.70;99.90;;;;;;5050350;28;20468;-62
2022/03/03 09:03:01;;;;;;;37.40;19.37;;;1.80;99.90;;;;;;5050673;28;20479;-69
2022/03/03 09:05:29;;;;;;;36.27;19.37;;;1.80;99.90;;;;;;5049932;28;20544;-66
2022/03/03 09:07:57;;;;;;;32.97;18.87;;;1.90;99.90;;;;;;5049747;28;20468;-69
2022/03/03 09:10:25;;;;;;;34.23;18.43;;;2.00;99.90;;;;;;5050390;28;20522;-69
2022/03/03 09:12:53;;;;;;;38.13;21.57;;;2.00;99.90;;;;;;5044725;28;20961;-69
2022/03/03 09:15:22;;;;;;;35.53;18.90;;;2.10;99.90;;;;;;5047935;28;20503;-69
2022/03/03 09:17:50;;;;;;;33.87;19.10;;;2.10;99.90;;;;;;5053860;28;20793;-69
2022/03/03 09:20:19;;;;;;;32.50;17.67;;;2.00;99.90;;;;;;5054070;28;20832;-69
2022/03/03 09:22:53;;;;;;;35.53;18.37;;;2.00;99.90;;;;;;5042144;28;20507;-70
2022/03/03 09:25:23;;;;;;;35.13;19.00;;;2.10;99.90;;;;;;5052984;28;20471;-69
2022/03/03 09:27:51;;;;;;;37.80;19.60;;;2.20;99.90;;;;;;5045296;28;20555;-69
2022/03/03 09:30:21;;;;;;;35.17;18.30;;;2.10;99.90;;;;;;5053612;28;20497;-68
2022/03/03 09:32:49;;;;;;;38.63;19.10;;;2.20;99.90;;;;;;5047250;28;20472;-69
2022/03/03 09:35:19;;;;;;;39.93;19.83;;;2.20;99.90;;;;;;5053610;28;20485;-69
2022/03/03 09:37:48;;;;;;;37.90;19.97;;;2.10;99.90;;;;;;5044737;28;20506;-69
2022/03/03 09:40:16;;;;;;;37.23;19.53;;;2.10;99.90;;;;;;5053423;28;20483;-69
2022/03/03 09:42:56;;;;;;;38.63;20.33;;;2.20;99.90;;;;;;5053541;28;20529;-69
2022/03/03 09:45:25;;;;;;;42.77;23.03;;;2.40;99.90;;;;;;5053504;28;20467;-69
2022/03/03 09:47:54;;;;;;;44.50;23.23;;;2.40;99.90;;;;;;5053408;28;20969;-69
2022/03/03 09:50:26;;;;;;;39.97;21.73;;;2.40;99.90;;;;;;5045696;28;20514;-69
2022/03/03 09:52:55;;;;;;;43.33;22.10;;;2.40;99.90;;;;;;5053353;28;20881;-69
2022/03/03 09:55:23;;;;;;;45.87;22.17;;;2.50;99.90;;;;;;5053579;28;20572;-69
2022/03/03 09:57:52;;;;;;;40.07;21.70;;;2.50;99.90;;;;;;5053305;28;20502;-69
2022/03/03 10:00:20;;;;;;;39.17;20.23;;;2.50;99.90;;;;;;5053314;28;20448;-69
2022/03/03 10:02:57;;;;;;;38.10;20.70;;;2.50;99.90;;;;;;5053106;28;21405;-69
2022/03/03 10:05:31;;;;;;;39.47;21.07;;;2.50;99.90;;;;;;5053683;28;20470;-69
2022/03/03 10:08:01;;;;;;;39.90;20.30;;;2.50;99.90;;;;;;5052724;28;20954;-68
2022/03/03 10:10:29;;;;;;;33.17;19.30;;;2.60;99.90;;;;;;5053429;28;20460;-62
2022/03/03 10:12:58;;;;;;;34.57;18.40;;;2.60;99.90;;;;;;5053219;28;20481;-69
2022/03/03 10:15:28;;;;;;;29.50;16.60;;;2.70;99.90;;;;;;5053175;28;20824;-69
2022/03/03 10:17:57;;;;;;;29.33;15.87;;;2.70;99.90;;;;;;5041145;28;20507;-68
2022/03/03 10:20:26;;;;;;;26.43;14.80;;;2.70;99.90;;;;;;5033163;28;20477;-69
2022/03/03 10:22:58;;;;;;;25.27;14.83;;;2.70;99.90;;;;;;5044239;28;20496;-69
2022/03/03 10:25:32;;;;;;;26.50;15.13;;;2.70;99.90;;;;;;5053072;28;21051;-69
2022/03/03 10:28:16;;;;;;;23.97;13.83;;;2.80;99.90;;;;;;5039937;28;20542;-69
2022/03/03 10:30:48;;;;;;;24.30;13.93;;;2.90;99.90;;;;;;5033101;28;20482;-69
2022/03/03 10:33:18;;;;;;;23.10;13.00;;;3.00;99.90;;;;;;5048052;28;20474;-69
2022/03/03 10:36:02;;;;;;;22.27;13.57;;;2.90;99.90;;;;;;5052929;28;20515;-69
2022/03/03 10:38:33;;;;;;;24.27;13.63;;;2.90;99.90;;;;;;5040587;28;20472;-69
2022/03/03 10:41:02;;;;;;;24.03;13.40;;;3.00;99.90;;;;;;5045877;28;20474;-69
2022/03/03 10:43:48;;;;;;;21.77;13.37;;;2.90;99.90;;;;;;5034795;28;20814;-69
2022/03/03 10:46:17;;;;;;;25.50;13.67;;;3.10;99.90;;;;;;5044355;28;20546;-69
2022/03/03 10:48:45;;;;;;;23.37;13.37;;;3.10;99.90;;;;;;5047323;28;20505;-69
2022/03/03 10:51:16;;;;;;;21.47;13.60;;;3.20;99.90;;;;;;5041541;28;20480;-69
2022/03/03 10:53:46;;;;;;;23.40;13.50;;;3.20;99.90;;;;;;5045113;28;20526;-69
2022/03/03 10:56:17;;;;;;;22.67;14.20;;;3.30;99.90;;;;;;5052761;28;20489;-70
2022/03/03 10:58:47;;;;;;;25.70;15.17;;;3.30;99.90;;;;;;5033699;28;21001;-70
2022/03/03 11:01:17;;;;;;;24.10;14.07;;;3.30;99.90;;;;;;5032534;28;20481;-69
2022/03/03 11:03:50;;;;;;;22.83;13.37;;;3.30;99.90;;;;;;5032361;28;20481;-69
2022/03/03 11:06:21;;;;;;;25.23;14.37;;;3.30;99.90;;;;;;5032540;28;20529;-69
2022/03/03 11:08:52;;;;;;;23.50;13.43;;;3.40;99.90;;;;;;5032001;28;21004;-70
2022/03/03 11:11:21;;;;;;;23.47;14.50;;;3.40;99.90;;;;;;5032335;28;20459;-69
2022/03/03 11:13:50;;;;;;;26.63;14.53;;;3.40;99.90;;;;;;5032269;28;20468;-69
2022/03/03 11:16:19;;;;;;;25.63;14.07;;;3.40;99.90;;;;;;5032140;28;21013;-70
2022/03/03 11:18:48;;;;;;;18.50;11.90;;;3.40;99.90;;;;;;5050693;28;21071;-69
2022/03/03 11:21:17;;;;;;;19.23;12.20;;;3.40;99.90;;;;;;5050297;28;20474;-70
2022/03/03 11:23:46;;;;;;;16.07;10.83;;;3.30;99.90;;;;;;5032081;28;20475;-68
2022/03/03 11:26:25;;;;;;;17.67;11.50;;;3.40;99.90;;;;;;5038954;28;20478;-69
2022/03/03 11:29:09;;;;;;;21.20;12.07;;;3.40;99.90;;;;;;5041962;28;20520;-69
2022/03/03 11:31:38;;;;;;;20.67;12.47;;;3.40;99.90;;;;;;5051403;28;20537;-67
2022/03/03 11:34:25;;;;;;;18.77;11.60;;;3.30;99.90;;;;;;5050953;28;20481;-68
2022/03/03 11:37:02;;;;;;;20.90;12.67;;;3.10;99.90;;;;;;5051496;28;20525;-69
2022/03/03 11:39:45;;;;;;;24.07;14.83;;;3.20;99.90;;;;;;5051350;28;20493;-68
2022/03/03 11:42:38;;;;;;;22.57;13.23;;;3.20;99.90;;;;;;5045298;28;20482;-69
2022/03/03 11:45:32;;;;;;;23.13;14.03;;;3.30;99.90;;;;;;5058534;28;20540;-68
2022/03/03 11:48:11;;;;;;;24.57;14.33;;;3.40;99.90;;;;;;5060386;28;20940;-70
2022/03/03 11:50:39;;;;;;;23.17;14.40;;;3.40;99.90;;;;;;5062915;28;20473;-69
2022/03/03 11:53:22;;;;;;;21.03;12.80;;;3.40;99.90;;;;;;5060621;28;20837;-69
2022/03/03 11:56:01;;;;;;;22.37;13.50;;;3.60;99.90;;;;;;5064842;28;20454;-69
2022/03/03 11:58:34;;;;;;;15.80;10.67;;;3.70;99.90;;;;;;5050992;28;20485;-66
2022/03/03 12:01:11;;;;;;;18.33;11.23;;;3.70;99.90;;;;;;5051132;28;20795;-69
2022/03/03 12:03:59;;;;;;;19.60;10.77;;;3.60;99.90;;;;;;5069102;28;20479;-67
2022/03/03 12:06:40;;;;;;;17.57;10.83;;;3.70;99.90;;;;;;5051059;28;20475;-69
2022/03/03 12:09:24;;;;;;;15.47;10.47;;;3.80;99.90;;;;;;5050927;28;20473;-69
2022/03/03 12:12:06;;;;;;;14.43;9.53;;;3.60;99.90;;;;;;5047716;28;20455;-65
2022/03/03 12:14:39;;;;;;;13.90;9.97;;;3.70;99.90;;;;;;5031273;28;20473;-69
2022/03/03 12:17:40;;;;;;;14.80;9.57;;;3.70;99.90;;;;;;5036181;28;20533;-69
2022/03/03 12:20:38;;;;;;;13.80;9.60;;;3.60;99.90;;;;;;5050889;28;20841;-69
2022/03/03 12:23:32;;;;;;;13.90;9.43;;;3.70;99.90;;;;;;5040316;28;20524;-69
2022/03/03 12:26:02;;;;;;;13.13;9.27;;;3.70;99.90;;;;;;5050672;28;20522;-69
2022/03/03 12:28:39;;;;;;;12.53;8.97;;;3.70;99.90;;;;;;5050419;28;20489;-69
2022/03/03 12:31:31;;;;;;;13.50;8.73;;;3.80;99.90;;;;;;5050477;28;20545;-67
2022/03/03 12:34:01;;;;;;;13.60;8.87;;;3.80;99.90;;;;;;5028038;28;20987;-67
2022/03/03 12:36:32;;;;;;;14.47;9.40;;;3.90;99.90;;;;;;5041898;28;20560;-66
2022/03/03 12:39:00;;;;;;;11.80;8.10;;;4.00;99.90;;;;;;5047898;28;20556;-67
2022/03/03 12:41:30;;;;;;;12.83;8.73;;;4.00;99.90;;;;;;5049427;28;20481;-68
2022/03/03 12:44:06;;;;;;;12.13;7.70;;;4.00;99.90;;;;;;5043109;28;20506;-69
2022/03/03 12:46:36;;;;;;;11.80;8.17;;;3.90;99.90;;;;;;5048284;28;20983;-69
2022/03/03 12:49:05;;;;;;;13.20;8.77;;;3.90;99.90;;;;;;5051209;28;20976;-69
2022/03/03 12:51:34;;;;;;;12.37;8.60;;;3.80;99.90;;;;;;5054348;28;20474;-69
2022/03/03 12:54:06;;;;;;;15.13;9.37;;;3.90;99.90;;;;;;5054648;28;20500;-69
2022/03/03 12:56:35;;;;;;;13.07;9.67;;;3.90;99.90;;;;;;5052504;28;20469;-69